Tiempo atmosférico en la estación meteorológica de Vega de San Mateo, Las Palmas (1702 m.)



Fecha
DESCASC
Temp. máxima en grados centígrados (hora)
DESCASC
Temp. mínima en grados centígrados (hora)
DESCASC
Temp. media en grados centígrados
DESCASC
Racha de viento máxima en m/sg (hora)
DESCASC
Velocidad máxima media en intervalos de 10 minutos(hora)
DESCASC
Precipitaciones diarias en mm
DESCASC
Precipitaciones de 00:00 a 06:00 en mm
DESCASC
Precipitaciones de 06:00 a 12:00 en mm
DESCASC
Precipitaciones de 12:00 a 18:00 en mm
DESCASC
Precipitaciones de 18:00 a 24:00 en mm
DESCASC
14-12-2019 17.5 (10:50) 6.5 (07:00) 12 6.11 (11:40) 2.78 (11:40) 0 0 0 0 0
13-12-2019 13.9 (15:50) 2.8 (02:40) 8.3 10 (06:30) 5.83 (02:20) 0 0 0 0 0
12-12-2019 10.4 (10:30) 3.7 (23:20) 7 12.22 (17:50) 6.67 (17:30) 2.6 0 0 2.2 0.4
11-12-2019 16.7 (12:20) 6.7 (00:00) 11.7 11.39 (22:50) 5.83 (21:00) 0 0 0 0 0
10-12-2019 14.5 (12:20) 7.2 (00:00) 10.8 11.67 (21:00) 6.39 (21:40) 0 0 0 0 0
09-12-2019 11.6 (15:40) 4 (00:00) 7.8 15.83 (00:40) 8.06 (00:10) 0 0 0 0 0
08-12-2019 6.1 (00:10) 3.3 (00:00) 4.7 15.28 (23:50) 8.06 (21:30) 0.4 0.4 0 0 0
07-12-2019 6.6 (10:10) 4.1 (00:00) 5.3 14.72 (23:50) 6.11 (22:40) 3.2 0.8 0.8 0.6 1
06-12-2019 5.9 (13:00) 4 (00:00) 5 13.33 (01:40) 6.39 (16:10) 34.6 17 4.6 7 6
05-12-2019 7.4 (01:30) 2.8 (00:00) 5.1 13.33 (22:10) 6.39 (23:30) 52.8 19 6 11 16.8
04-12-2019 7.6 (13:40) 3.3 (00:00) 5.4 9.72 (22:40) 6.11 (21:30) 2.4 0.4 0.6 0.6 0.8
03-12-2019 6.1 (13:20) 3.9 (00:00) 5 8.89 (08:40) 3.61 (09:20) 7.2 5.6 1.2 0.4 0
02-12-2019 10.7 (10:30) 5.4 (00:00) 8 8.89 (16:00) 5.83 (16:10) 2.6 0 0 0 2.6
01-12-2019 17.2 (11:30) 8.3 (00:00) 12.8 7.5 (13:10) 4.72 (15:40) 0 0 0 0 0
30-11-2019 19.2 (12:40) 11.2 (00:00) 15.2 10.56 (00:30) 6.67 (02:10) 0 0 0 0 0
29-11-2019 16.3 (13:50) 11.6 (00:00) 13.9 15.28 (09:40) 8.89 (11:00) 0 0 0 0 0
28-11-2019 15.2 (12:20) 8.6 (00:00) 11.9 10 (21:20) 6.11 (23:59) 0 0 0 0 0
27-11-2019 16.5 (11:10) 7.3 (00:00) 11.9 7.22 (23:00) 4.17 (23:10) 0 0 0 0 0
26-11-2019 17.6 (11:30) 11 (00:00) 14.3 11.39 (05:30) 6.94 (05:40) 0 0 0 0 0
25-11-2019 19.8 (10:50) 8.9 (00:00) 14.3 8.89 (21:00) 5.28 (20:20) 0 0 0 0 0
24-11-2019 15.5 (15:00) 7.2 (00:00) 11.3 11.67 (02:50) 6.11 (02:20) 0.2 0.2 0 0 0
23-11-2019 15 (10:50) 7 (00:00) 11 10.28 (23:59) 5.83 (23:20) 2 0 0.2 1.6 0.2
22-11-2019 15.8 (09:50) 6.8 (00:00) 11.3 7.22 (14:30) 4.72 (14:30) 0 0 0 0 0
21-11-2019 13.8 (12:20) 6.8 (00:00) 10.3 7.5 (05:50) 4.17 (05:50) 0.2 0 0.2 0 0
20-11-2019 13.8 (09:50) 4.1 (00:00) 9 5.83 (14:20) 4.17 (16:20) 0 0 0 0 0
19-11-2019 -- (--) -- (--) -- -- (--) -- (--) -- 0.2 -- -- 0
18-11-2019 12.1 (11:50) 2.2 (00:00) 7.2 10.28 (20:10) 5 (19:50) 0.2 0 0 0 0.2
17-11-2019 6.2 (14:00) 4.1 (00:00) 5.1 13.61 (09:40) 7.78 (08:30) 8.8 3.2 4.6 0.8 0.2
16-11-2019 6.1 (19:30) 4.5 (00:00) 5.3 13.61 (20:50) 8.33 (19:10) 16.4 5.6 6.8 0.6 3.4

Gráficas

Temp. máximas Temp. mínimas Temp. medias Precipitaciones Rachas de viento máximas Velocidades máximas media en intervalos de 10 minutos

Datos horarios

Fecha y hora oficial Temperatura (ºC) Velocidad del viento (km/h) Dirección del viento Racha (km/h) Dirección de racha Precipitación (mm) Presión (hPa) Tendencia (hPa) Humedad (%)
2019-12-15 23:00:00 7.5 11 Sudoeste 27 Oeste 0 -- -- 24
2019-12-15 22:00:00 7.6 10 Sudoeste 24 Sudoeste 0 -- -- 25
2019-12-15 21:00:00 7.7 12 Sudoeste 27 Sudoeste 0 -- -- 26
2019-12-15 20:00:00 8 15 Oeste 29 Sur 0 -- -- 27
2019-12-15 19:00:00 7.8 14 Sudoeste 31 Sudoeste 0 -- -- 29
2019-12-15 18:00:00 8.4 18 Sudoeste 32 Oeste 0 -- -- 32
2019-12-15 17:00:00 9.8 18 Sudoeste 40 Sudoeste 0 -- -- 33
2019-12-15 16:00:00 10.9 22 Sudoeste 37 Oeste 0 -- -- 34
2019-12-15 15:00:00 11.4 21 Oeste 42 Oeste 0 -- -- 29
2019-12-15 14:00:00 11.3 15 Sudoeste 38 Sudoeste 0 -- -- 23
2019-12-15 13:00:00 12 15 Sudoeste 34 Sur 0 -- -- 19
2019-12-15 12:00:00 12.1 15 Sudoeste 39 Sudoeste 0 -- -- 16
2019-12-15 11:00:00 11.4 15 Sudoeste 34 Oeste 0 -- -- 13
2019-12-15 10:00:00 10.1 10 Sudoeste 24 Sudoeste 0 -- -- 10
2019-12-15 09:00:00 9.8 9 Sudoeste 23 Sur 0 -- -- 10
2019-12-15 08:00:00 9.1 8 Sudoeste 21 Sur 0 -- -- 9
2019-12-15 07:00:00 9.9 12 Sur 29 Sur 0 -- -- 7
2019-12-15 06:00:00 9.2 8 Sudoeste 25 Sur 0 -- -- 8
2019-12-15 05:00:00 9.5 8 Sudoeste 24 Sudoeste 0 -- -- 8
2019-12-15 04:00:00 9.6 9 Sudoeste 22 Oeste 0 -- -- 10
2019-12-15 03:00:00 9.6 10 Oeste 20 Sudoeste 0 -- -- 11
2019-12-15 02:00:00 9.2 8 Oeste 23 Oeste 0 -- -- 13
2019-12-15 01:00:00 9.2 5 Sudoeste 15 Sudoeste 0 -- -- 11
2019-12-15 00:00:00 9.7 5 Sur 17 Sudeste 0 -- -- 9
2019-12-14 23:00:00 9.9 6 Sur 15 Sur 0 -- -- 6
2019-12-14 22:00:00 10 4 Sur 12 Sur 0 -- -- 8
2019-12-14 21:00:00 10 2 Sur 9 Sudeste 0 -- -- 8
2019-12-14 20:00:00 10 2 Sur 10 Sur 0 -- -- 7
2019-12-14 19:00:00 9.2 4 Sur 8 Sur 0 -- -- 11
2019-12-14 18:00:00 8.2 3 Sudoeste 12 Sudoeste 0 -- -- 86
2019-12-14 17:00:00 13.8 5 Sudoeste 13 Oeste 0 -- -- 40
2019-12-14 16:00:00 13 8 Oeste 16 Oeste 0 -- -- 71
2019-12-14 15:00:00 12.4 8 Oeste 17 Oeste 0 -- -- 76
2019-12-14 14:00:00 13.8 9 Oeste 15 Sudoeste 0 -- -- 58
2019-12-14 13:00:00 14.5 8 Oeste 19 Oeste 0 -- -- 47
2019-12-14 12:00:00 16.7 8 Sudoeste 22 Sur 0 -- -- 10
2019-12-14 11:00:00 16.7 6 Sudoeste 14 Sudoeste 0 -- -- 11
2019-12-14 10:00:00 16.1 6 Sudeste 12 Sudeste 0 -- -- 9
2019-12-14 09:00:00 11.4 2 Este 6 Este 0 -- -- 19
2019-12-14 08:00:00 7 3 Este 6 Nordeste 0 -- -- 23
2019-12-14 07:00:00 6.5 2 Nordeste 7 Nordeste 0 -- -- 24
2019-12-14 06:00:00 7 0 Calma 5 Sudeste 0 -- -- 14
2019-12-14 05:00:00 7.2 3 Noroeste 8 Este 0 -- -- 17
2019-12-14 04:00:00 7.4 2 Nordeste 6 Este 0 -- -- 20
2019-12-14 03:00:00 7 3 Este 13 Nordeste 0 -- -- 42
2019-12-14 02:00:00 7.8 7 Este 14 Nordeste 0 -- -- 47
2019-12-14 01:00:00 7.8 7 Este 16 Este 0 -- -- 52
2019-12-14 00:00:00 8.5 8 Este 17 Este 0 -- -- 47
2019-12-13 23:00:00 9.1 9 Este 21 Este 0 -- -- 39
2019-12-13 22:00:00 9.1 12 Este 23 Este 0 -- -- 28
2019-12-13 21:00:00 10.3 14 Este 25 Este 0 -- -- 24
2019-12-13 20:00:00 9.5 13 Este 24 Este 0 -- -- 23
2019-12-13 19:00:00 9.8 12 Este 18 Este 0 -- -- 19
2019-12-13 18:00:00 11 10 Este 21 Este 0 -- -- 19
2019-12-13 17:00:00 13 9 Este 19 Este 0 -- -- 18
2019-12-13 16:00:00 13.8 8 Este 19 Este 0 -- -- 22
2019-12-13 15:00:00 13.7 10 Este 23 Este 0 -- -- 22
2019-12-13 14:00:00 13.3 12 Este 24 Este 0 -- -- 27
2019-12-13 13:00:00 13.5 12 Este 26 Este 0 -- -- 19
2019-12-13 12:00:00 12 15 Este 30 Este 0 -- -- 32
2019-12-13 11:00:00 11.4 18 Este 31 Este 0 -- -- 29
2019-12-13 10:00:00 10.6 15 Este 28 Este 0 -- -- 32
2019-12-13 09:00:00 9.6 16 Este 32 Este 0 -- -- 24
2019-12-13 08:00:00 8.1 17 Este 28 Sudeste 0 -- -- 20
2019-12-13 07:00:00 7.3 20 Este 36 Este 0 -- -- 24
2019-12-13 06:00:00 6.9 19 Este 33 Nordeste 0 -- -- 31
2019-12-13 05:00:00 6.8 19 Este 33 Este 0 -- -- 37
2019-12-13 04:00:00 3.5 19 Este 31 Este 0 -- -- 100
2019-12-13 03:00:00 2.8 18 Este 34 Este 0 -- -- 100
2019-12-13 02:00:00 3.8 20 Este 34 Este 0 -- -- 100
2019-12-13 01:00:00 3.7 20 Este 34 Este 0 -- -- 100
2019-12-13 00:00:00 3.8 18 Este 33 Este 0 -- -- 100
2019-12-12 23:00:00 3.8 19 Este 33 Este 0 -- -- 100
2019-12-12 22:00:00 4.7 18 Este 32 Este 0.2 -- -- 100
2019-12-12 21:00:00 4.8 16 Este 37 Nordeste 0 -- -- 100
2019-12-12 20:00:00 5.2 17 Este 33 Este 0 -- -- 100
2019-12-12 19:00:00 5 18 Este 35 Nordeste 0.2 -- -- 100
2019-12-12 18:00:00 6.2 23 Este 44 Este 0.6 -- -- 99
2019-12-12 17:00:00 6.5 20 Este 36 Este 0.4 -- -- 99
2019-12-12 16:00:00 7.2 19 Este 37 Nordeste 0.4 -- -- 99
2019-12-12 15:00:00 7.2 20 Este 42 Nordeste 0.6 -- -- 98
2019-12-12 14:00:00 7.8 22 Este 37 Este 0.2 -- -- 98
2019-12-12 13:00:00 7.4 17 Este 31 Nordeste 0 -- -- 96
2019-12-12 12:00:00 8.2 16 Este 36 Nordeste 0 -- -- 92
2019-12-12 11:00:00 9.7 17 Este 39 Este 0 -- -- 64
2019-12-12 10:00:00 10 18 Este 34 Este 0 -- -- 22
2019-12-12 09:00:00 8.6 20 Este 40 Nordeste 0 -- -- 26
2019-12-12 08:00:00 7.8 21 Este 38 Este 0 -- -- 21
2019-12-12 07:00:00 7.3 19 Este 38 Este 0 -- -- 26
2019-12-12 06:00:00 7.6 18 Este 35 Este 0 -- -- 24
2019-12-12 05:00:00 8.8 19 Este 38 Nordeste 0 -- -- 17
2019-12-12 04:00:00 8.5 19 Este 36 Este 0 -- -- 16
2019-12-12 03:00:00 8.2 20 Este 31 Este 0 -- -- 14
2019-12-12 02:00:00 8 19 Este 33 Este 0 -- -- 18
2019-12-12 01:00:00 9.2 18 Este 34 Este 0 -- -- 20
2019-12-12 00:00:00 8.9 18 Este 38 Este 0 -- -- 20
2019-12-11 23:00:00 9.2 19 Este 41 Este 0 -- -- 14
2019-12-11 22:00:00 8.7 18 Este 38 Este 0 -- -- 14
2019-12-11 21:00:00 9.5 21 Este 33 Nordeste 0 -- -- 14
2019-12-11 20:00:00 9.9 18 Este 32 Este 0 -- -- 26
2019-12-11 19:00:00 9.5 15 Este 30 Este 0 -- -- 45
2019-12-11 18:00:00 10.5 15 Este 30 Este 0 -- -- 28
2019-12-11 17:00:00 12.8 10 Este 18 Este 0 -- -- 15
2019-12-11 16:00:00 14 9 Este 15 Este 0 -- -- 14
2019-12-11 15:00:00 13.7 5 Este 13 Nordeste 0 -- -- 36
2019-12-11 14:00:00 14.7 10 Oeste 15 Noroeste 0 -- -- 52
2019-12-11 13:00:00 15.7 5 Nordeste 14 Este 0 -- -- 36
2019-12-11 12:00:00 16.3 4 Oeste 12 Oeste 0 -- -- 36
2019-12-11 11:00:00 14.5 8 Oeste 12 Oeste 0 -- -- 29
2019-12-11 10:00:00 15.3 4 Oeste 10 Nordeste 0 -- -- 20
2019-12-11 09:00:00 13.9 4 Oeste 16 Sudeste 0 -- -- 17
2019-12-11 08:00:00 10.2 5 Sudeste 22 Este 0 -- -- 13
2019-12-11 07:00:00 11.2 10 Este 26 Este 0 -- -- 13
2019-12-11 06:00:00 11.8 12 Este 24 Este 0 -- -- 19
2019-12-11 05:00:00 11.6 15 Este 28 Este 0 -- -- 17
2019-12-11 04:00:00 11 17 Este 27 Este 0 -- -- 16
2019-12-11 03:00:00 9.9 17 Este 31 Este 0 -- -- 26
2019-12-11 02:00:00 9.8 16 Este 31 Este 0 -- -- 59
2019-12-11 01:00:00 6.7 19 Este 33 Este 0 -- -- 97
2019-12-11 00:00:00 7.6 19 Este 32 Este 0 -- -- 88
2019-12-10 23:00:00 8.8 18 Este 37 Este 0 -- -- 76
2019-12-10 22:00:00 8.9 22 Este 41 Este 0 -- -- 74
2019-12-10 21:00:00 9.8 21 Este 42 Este 0 -- -- 66
2019-12-10 20:00:00 9.6 19 Este 36 Este 0 -- -- 65
2019-12-10 19:00:00 9.5 19 Este 39 Este 0 -- -- 62
2019-12-10 18:00:00 10.2 18 Este 33 Este 0 -- -- 54
2019-12-10 17:00:00 11.5 15 Este 29 Este 0 -- -- 44
2019-12-10 16:00:00 12.3 15 Este 28 Este 0 -- -- 35
2019-12-10 15:00:00 12.8 11 Este 24 Este 0 -- -- 43
2019-12-10 14:00:00 13.2 9 Este 23 Este 0 -- -- 34
2019-12-10 13:00:00 13.8 9 Este 22 Nordeste 0 -- -- 36
2019-12-10 12:00:00 14.3 9 Este 22 Este 0 -- -- 17
2019-12-10 11:00:00 13 12 Este 21 Nordeste 0 -- -- 19
2019-12-10 10:00:00 13.6 9 Este 24 Este 0 -- -- 14
2019-12-10 09:00:00 11.9 10 Este 20 Este 0 -- -- 15
2019-12-10 08:00:00 9.4 10 Este 17 Este 0 -- -- 15
2019-12-10 07:00:00 8.2 11 Este 18 Este 0 -- -- 19
2019-12-10 06:00:00 8.9 10 Este 19 Este 0 -- -- 16
2019-12-10 05:00:00 8.8 11 Este 19 Este 0 -- -- 17
2019-12-10 04:00:00 8.1 13 Este 20 Este 0 -- -- 21
2019-12-10 03:00:00 8.1 12 Este 24 Este 0 -- -- 21
2019-12-10 02:00:00 8.4 15 Este 24 Este 0 -- -- 19
2019-12-10 01:00:00 8.3 14 Este 25 Este 0 -- -- 18
2019-12-10 00:00:00 8.4 14 Este 23 Este 0 -- -- 18
2019-12-09 23:00:00 8.7 14 Este 28 Este 0 -- -- 18
2019-12-09 22:00:00 8.8 16 Este 28 Este 0 -- -- 18
2019-12-09 21:00:00 8.4 15 Este 25 Este 0 -- -- 21
2019-12-09 20:00:00 5.3 12 Este 20 Este 0 -- -- 46
2019-12-09 19:00:00 5.5 12 Este 21 Este 0 -- -- 51
2019-12-09 18:00:00 7.2 5 Nordeste 10 Nordeste 0 -- -- 52
2019-12-09 17:00:00 10.2 5 Este 11 Nordeste 0 -- -- 49
2019-12-09 16:00:00 11.1 4 Norte 13 Nordeste 0 -- -- 70
2019-12-09 15:00:00 11 7 Este 17 Este 0 -- -- 69
2019-12-09 14:00:00 9.9 9 Este 24 Este 0 -- -- 83
2019-12-09 13:00:00 9 10 Este 27 Este 0 -- -- 85
2019-12-09 12:00:00 7.8 13 Este 28 Este 0 -- -- 95
2019-12-09 11:00:00 5.9 14 Este 29 Nordeste 0 -- -- 100
2019-12-09 10:00:00 5.9 16 Este 29 Este 0 -- -- 100
2019-12-09 09:00:00 4.7 17 Este 33 Este 0 -- -- 100
2019-12-09 08:00:00 4.4 18 Este 39 Este 0 -- -- 100
2019-12-09 07:00:00 4.6 18 Este 34 Este 0 -- -- 100
2019-12-09 06:00:00 4.4 16 Este 33 Este 0 -- -- 100
2019-12-09 05:00:00 4.4 18 Este 40 Nordeste 0 -- -- 100
2019-12-09 04:00:00 4.4 22 Este 45 Este 0 -- -- 100
2019-12-09 03:00:00 4 23 Este 52 Este 0 -- -- 100
2019-12-09 02:00:00 4.4 26 Este 49 Este 0 -- -- 100
2019-12-09 01:00:00 4.5 24 Este 57 Este 0 -- -- 100
2019-12-09 00:00:00 4.4 29 Este 55 Este 0 -- -- 100
2019-12-08 23:00:00 4.4 26 Este 51 Este 0 -- -- 100
2019-12-08 22:00:00 4.8 27 Este 50 Este 0 -- -- 100
2019-12-08 21:00:00 4.7 25 Este 50 Este 0 -- -- 100
2019-12-08 20:00:00 4.4 22 Este 39 Este 0 -- -- 100
2019-12-08 19:00:00 3.3 19 Este 38 Nordeste 0 -- -- 100
2019-12-08 18:00:00 3.9 23 Este 44 Este 0 -- -- 100
2019-12-08 17:00:00 4.7 22 Este 47 Este 0 -- -- 100
2019-12-08 16:00:00 5.6 23 Este 51 Este 0 -- -- 100
2019-12-08 15:00:00 5.6 24 Este 54 Este 0 -- -- 100
2019-12-08 14:00:00 5.7 21 Este 48 Este 0 -- -- 100
2019-12-08 13:00:00 5.5 22 Este 50 Este 0 -- -- 100
2019-12-08 12:00:00 5.7 16 Sudeste 41 Este 0 -- -- 100
2019-12-08 11:00:00 5 12 Sudeste 40 Sudeste 0 -- -- 100
2019-12-08 10:00:00 4.3 22 Este 51 Este 0 -- -- 100
2019-12-08 09:00:00 4.9 28 Este 55 Este 0 -- -- 100
2019-12-08 08:00:00 3.8 24 Este 46 Sudeste 0 -- -- 100
2019-12-08 07:00:00 4.3 22 Este 46 Este 0 -- -- 100
2019-12-08 06:00:00 4.2 18 Este 42 Sudeste 0.2 -- -- 100
2019-12-08 05:00:00 4.4 13 Sudeste 41 Este 0 -- -- 100
2019-12-08 04:00:00 5.2 11 Sudeste 39 Sudeste 0 -- -- 100
2019-12-08 03:00:00 5.6 13 Sur 38 Sudeste 0 -- -- 100
2019-12-08 02:00:00 5.7 12 Sudeste 45 Este 0 -- -- 100
2019-12-08 01:00:00 5.8 15 Sudeste 42 Este 0.2 -- -- 100
2019-12-08 00:00:00 5.8 15 Sudeste 53 Este 0.2 -- -- 100
2019-12-07 23:00:00 5.7 15 Sudeste 45 Este 0.2 -- -- 100
2019-12-07 22:00:00 5.9 16 Sudeste 45 Este 0.2 -- -- 100
2019-12-07 21:00:00 6 14 Sudeste 37 Sudeste 0.2 -- -- 100
2019-12-07 20:00:00 6.1 15 Sudeste 42 Este 0.2 -- -- 100
2019-12-07 19:00:00 6 11 Sudoeste 27 Este 0 -- -- 100
2019-12-07 18:00:00 5.8 13 Sur 35 Este 0.2 -- -- 100
2019-12-07 17:00:00 6.1 10 Sur 30 Noroeste 0.2 -- -- 100
2019-12-07 16:00:00 6.4 9 Sudoeste 28 Oeste 0 -- -- 100
2019-12-07 15:00:00 5.7 11 Sudoeste 33 Noroeste 0 -- -- 100
2019-12-07 14:00:00 5.9 10 Sudoeste 28 Oeste 0 -- -- 100
2019-12-07 13:00:00 6.3 10 Sudoeste 33 Noroeste 0.2 -- -- 100
2019-12-07 12:00:00 5.9 14 Oeste 27 Noroeste 0 -- -- 100
2019-12-07 11:00:00 5.7 11 Oeste 33 Noroeste 0.2 -- -- 100
2019-12-07 10:00:00 6.5 12 Sudoeste 25 Sudeste 0 -- -- 100
2019-12-07 09:00:00 5.7 12 Sur 25 Sudeste 0.6 -- -- 100
2019-12-07 08:00:00 5.6 10 Sur 31 Este 0 -- -- 100
2019-12-07 07:00:00 4.4 10 Sudeste 32 Este 0 -- -- 100
2019-12-07 06:00:00 5.1 10 Sudeste 24 Sudeste 0 -- -- 100
2019-12-07 05:00:00 4.7 9 Sudoeste 22 Noroeste 0 -- -- 100
2019-12-07 04:00:00 4.2 8 Sudoeste 25 Noroeste 0 -- -- 100
2019-12-07 03:00:00 4.5 8 Sudoeste 23 Sudeste 0.2 -- -- 100
2019-12-07 02:00:00 4.8 11 Sur 24 Este 0 -- -- 100
2019-12-07 01:00:00 4.7 7 Sudeste 23 Noroeste 0.6 -- -- 100
2019-12-07 00:00:00 4.7 10 Oeste 30 Oeste 0.2 -- -- 100
2019-12-06 23:00:00 4.9 12 Oeste 33 Noroeste 0 -- -- 100
2019-12-06 22:00:00 4.6 11 Oeste 36 Noroeste 0.2 -- -- 100
2019-12-06 21:00:00 5.6 20 Oeste 39 Oeste 1.8 -- -- 100
2019-12-06 20:00:00 5.6 16 Oeste 43 Oeste 3 -- -- 100
2019-12-06 19:00:00 4.6 19 Oeste 43 Noroeste 0.8 -- -- 100
2019-12-06 18:00:00 4.7 18 Oeste 47 Noroeste 0.6 -- -- 100
2019-12-06 17:00:00 5.2 18 Noroeste 45 Noroeste 1.4 -- -- 100
2019-12-06 16:00:00 5.7 18 Oeste 45 Noroeste 3 -- -- 100
2019-12-06 15:00:00 5.6 13 Oeste 34 Noroeste 0 -- -- 100
2019-12-06 14:00:00 5.7 18 Oeste 36 Oeste 1.4 -- -- 100
2019-12-06 13:00:00 5.9 12 Oeste 35 Noroeste 0.6 -- -- 100
2019-12-06 12:00:00 5.5 10 Oeste 32 Oeste 0.6 -- -- 100
2019-12-06 11:00:00 5.7 12 Oeste 27 Oeste 1.2 -- -- 100
2019-12-06 10:00:00 5.8 12 Oeste 33 Oeste 1.2 -- -- 100
2019-12-06 09:00:00 4.7 9 Oeste 24 Noroeste 0 -- -- 100
2019-12-06 08:00:00 4.2 6 Sudoeste 40 Oeste 0.2 -- -- 100
2019-12-06 07:00:00 4.2 12 Oeste 37 Oeste 1.4 -- -- 100
2019-12-06 06:00:00 4.8 10 Oeste 33 Noroeste 2 -- -- 100
2019-12-06 05:00:00 4.8 16 Oeste 39 Oeste 1.2 -- -- 100
2019-12-06 04:00:00 4.1 9 Oeste 35 Oeste 1.6 -- -- 100
2019-12-06 03:00:00 4.4 14 Oeste 31 Noroeste 0.6 -- -- 100
2019-12-06 02:00:00 4.5 18 Oeste 48 Noroeste 1.8 -- -- 100
2019-12-06 01:00:00 4.4 14 Oeste 43 Noroeste 9.8 -- -- 100
2019-12-06 00:00:00 4.4 16 Oeste 48 Noroeste 3.8 -- -- 100
2019-12-05 23:00:00 4.4 17 Oeste 48 Noroeste 0.6 -- -- 100
2019-12-05 22:00:00 4 20 Oeste 44 Oeste 7.8 -- -- 100
2019-12-05 21:00:00 4.1 17 Oeste 38 Oeste 0.8 -- -- 100
2019-12-05 20:00:00 4.4 15 Noroeste 44 Noroeste 1 -- -- 100
2019-12-05 19:00:00 3.4 17 Noroeste 41 Norte 2.8 -- -- 100
2019-12-05 18:00:00 3.5 16 Noroeste 40 Noroeste 3.8 -- -- 100
2019-12-05 17:00:00 4 18 Noroeste 43 Norte 2 -- -- 100
2019-12-05 16:00:00 4.1 13 Noroeste 33 Noroeste 1 -- -- 100
2019-12-05 15:00:00 4.6 18 Noroeste 41 Noroeste 1.2 -- -- 100
2019-12-05 14:00:00 4.7 18 Noroeste 42 Oeste 2 -- -- 100
2019-12-05 13:00:00 4 15 Noroeste 45 Norte 1 -- -- 100
2019-12-05 12:00:00 4.8 13 Noroeste 38 Noroeste 1.4 -- -- 100
2019-12-05 11:00:00 4.5 17 Noroeste 38 Oeste 2.6 -- -- 100
2019-12-05 10:00:00 4 19 Noroeste 39 Noroeste 0.4 -- -- 100
2019-12-05 09:00:00 3.2 12 Noroeste 37 Oeste 0.2 -- -- 100
2019-12-05 08:00:00 3.3 12 Noroeste 39 Noroeste 0 -- -- 100
2019-12-05 07:00:00 2.9 15 Noroeste 36 Noroeste 1.4 -- -- 100
2019-12-05 06:00:00 4.2 9 Oeste 35 Oeste 1.6 -- -- 100
2019-12-05 05:00:00 4.7 12 Noroeste 33 Oeste 2.4 -- -- 100
2019-12-05 04:00:00 6.2 9 Oeste 23 Noroeste 3.2 -- -- 100
2019-12-05 03:00:00 7 9 Noroeste 30 Oeste 4.6 -- -- 100
2019-12-05 02:00:00 7.4 18 Oeste 39 Oeste 4.6 -- -- 100
2019-12-05 01:00:00 7 13 Oeste 30 Oeste 2.6 -- -- 100
2019-12-05 00:00:00 6.8 9 Oeste 35 Oeste 0 -- -- 100
2019-12-04 23:00:00 6.7 18 Oeste 35 Oeste 0.2 -- -- 100
2019-12-04 22:00:00 6.2 15 Oeste 33 Oeste 0 -- -- 100
2019-12-04 21:00:00 6.5 17 Oeste 30 Oeste 0.4 -- -- 100
2019-12-04 20:00:00 6.4 9 Oeste 21 Oeste 0.2 -- -- 100
2019-12-04 19:00:00 6.2 5 Oeste 22 Oeste 0 -- -- 100
2019-12-04 18:00:00 6.1 9 Noroeste 23 Noroeste 0.2 -- -- 100
2019-12-04 17:00:00 6.6 6 Noroeste 21 Oeste 0 -- -- 98
2019-12-04 16:00:00 7.3 7 Oeste 14 Oeste 0 -- -- 97
2019-12-04 15:00:00 7.2 7 Oeste 15 Oeste 0.2 -- -- 99
2019-12-04 14:00:00 7.1 10 Oeste 17 Oeste 0 -- -- 99
2019-12-04 13:00:00 6.8 5 Oeste 17 Norte 0.2 -- -- 98
2019-12-04 12:00:00 6.9 3 Norte 15 Noroeste 0 -- -- 98
2019-12-04 11:00:00 5.3 5 Norte 21 Este 0 -- -- 99
2019-12-04 10:00:00 4.7 6 Noroeste 19 Norte 0 -- -- 100
2019-12-04 09:00:00 4 5 Noroeste 18 Noroeste 0 -- -- 100
2019-12-04 08:00:00 4.2 11 Oeste 20 Oeste 0.2 -- -- 100
2019-12-04 07:00:00 4.6 3 Noroeste 15 Noroeste 0.4 -- -- 100
2019-12-04 06:00:00 5.6 5 Oeste 19 Oeste 0.4 -- -- 100
2019-12-04 05:00:00 4.7 7 Este 18 Nordeste 0 -- -- 100
2019-12-04 04:00:00 3.5 4 Sudoeste 18 Oeste 0 -- -- 100
2019-12-04 03:00:00 3.4 2 Noroeste 15 Noroeste 0 -- -- 100
2019-12-04 02:00:00 4.2 3 Nordeste 21 Este 0 -- -- 100
2019-12-04 01:00:00 3.9 6 Este 16 Nordeste 0 -- -- 100
2019-12-04 00:00:00 4.8 3 Sur 15 Oeste 0 -- -- 100
2019-12-03 23:00:00 3.9 4 Sudeste 18 Este 0 -- -- 99
2019-12-03 22:00:00 4.3 4 Norte 16 Este 0 -- -- 99
2019-12-03 21:00:00 4.3 6 Este 19 Este 0 -- -- 100
2019-12-03 20:00:00 4 5 Este 18 Este 0 -- -- 99
2019-12-03 19:00:00 4.2 3 Este 14 Oeste 0 -- -- 99
2019-12-03 18:00:00 4.4 5 Oeste 13 Noroeste 0 -- -- 99
2019-12-03 17:00:00 5.1 5 Oeste 17 Oeste 0 -- -- 100
2019-12-03 16:00:00 5.4 6 Oeste 17 Noroeste 0.2 -- -- 99
2019-12-03 15:00:00 6.1 4 Sudoeste 19 Oeste 0.2 -- -- 99
2019-12-03 14:00:00 6.1 5 Oeste 22 Norte 0 -- -- 98
2019-12-03 13:00:00 5.7 6 Oeste 19 Noroeste 0 -- -- 99
2019-12-03 12:00:00 5 9 Noroeste 24 Oeste 0 -- -- 100
2019-12-03 11:00:00 4.3 10 Oeste 27 Noroeste 0 -- -- 100
2019-12-03 10:00:00 4.4 12 Noroeste 29 Oeste 0.2 -- -- 100
2019-12-03 09:00:00 4.9 9 Noroeste 32 Noroeste 0.2 -- -- 100
2019-12-03 08:00:00 4.8 10 Noroeste 31 Noroeste 0.4 -- -- 100
2019-12-03 07:00:00 5.3 8 Noroeste 31 Noroeste 0.4 -- -- 100
2019-12-03 06:00:00 5.3 9 Oeste 27 Norte 1 -- -- 100
2019-12-03 05:00:00 5.2 9 Noroeste 28 Noroeste 0.8 -- -- 99
2019-12-03 04:00:00 5.6 9 Oeste 27 Oeste 1 -- -- 100
2019-12-03 03:00:00 5.5 5 Noroeste 28 Oeste 1 -- -- 100
2019-12-03 02:00:00 5.7 6 Noroeste 21 Noroeste 0.6 -- -- 99
2019-12-03 01:00:00 5.8 6 Noroeste 21 Oeste 1.2 -- -- 99
2019-12-03 00:00:00 5.6 4 Sudoeste 24 Norte 1 -- -- 99
2019-12-02 23:00:00 5.4 5 Noroeste 23 Oeste 0.6 -- -- 99
2019-12-02 22:00:00 5.6 4 Noroeste 29 Oeste 0.6 -- -- 99
2019-12-02 21:00:00 6.3 6 Oeste 26 Sudoeste 0.4 -- -- 99
2019-12-02 20:00:00 5.6 10 Oeste 24 Oeste 0 -- -- 99
2019-12-02 19:00:00 5.7 9 Oeste 23 Oeste 0 -- -- 98
2019-12-02 18:00:00 6 13 Oeste 28 Oeste 0 -- -- 97
2019-12-02 17:00:00 6.8 16 Oeste 30 Oeste 0 -- -- 93
2019-12-02 16:00:00 7.3 20 Oeste 32 Oeste 0 -- -- 92
2019-12-02 15:00:00 8.8 15 Oeste 26 Oeste 0 -- -- 84
2019-12-02 14:00:00 8.3 12 Oeste 22 Oeste 0 -- -- 85
2019-12-02 13:00:00 8.8 8 Oeste 27 Oeste 0 -- -- 85
2019-12-02 12:00:00 7.6 10 Oeste 22 Oeste 0 -- -- 97
2019-12-02 11:00:00 10 5 Noroeste 21 Norte 0 -- -- 89
2019-12-02 10:00:00 10.1 5 Noroeste 27 Norte 0 -- -- 89
2019-12-02 09:00:00 7.6 10 Oeste 23 Norte 0 -- -- 96
2019-12-02 08:00:00 6.4 5 Norte 16 Este 0 -- -- 81
2019-12-02 07:00:00 6.6 4 Sudoeste 10 Sudoeste 0 -- -- 63
2019-12-02 06:00:00 6.5 5 Sudoeste 15 Oeste 0 -- -- 68
2019-12-02 05:00:00 6.7 4 Este 17 Nordeste 0 -- -- 97
2019-12-02 04:00:00 7 10 Nordeste 21 Este 0 -- -- 97
2019-12-02 03:00:00 6.1 10 Nordeste 18 Nordeste 0 -- -- 89
2019-12-02 02:00:00 8.7 7 Nordeste 12 Nordeste 0 -- -- 31
2019-12-02 01:00:00 8.6 3 Norte 9 Este 0 -- -- 24
2019-12-02 00:00:00 9.3 4 Este 10 Oeste 0 -- -- 35
2019-12-01 23:00:00 10.8 4 Noroeste 10 Noroeste 0 -- -- 39
2019-12-01 22:00:00 9 0 Calma 9 Nordeste 0 -- -- 43
2019-12-01 21:00:00 10.6 2 Noroeste 18 Norte 0 -- -- 33
2019-12-01 20:00:00 11.9 6 Norte 19 Norte 0 -- -- 29
2019-12-01 19:00:00 11.6 4 Norte 15 Norte 0 -- -- 40
2019-12-01 18:00:00 12.6 5 Oeste 21 Sudoeste 0 -- -- 41
2019-12-01 17:00:00 14 14 Oeste 25 Oeste 0 -- -- 38
2019-12-01 16:00:00 15 16 Oeste 26 Oeste 0 -- -- 36
2019-12-01 15:00:00 15.4 14 Oeste 27 Oeste 0 -- -- 34
2019-12-01 14:00:00 16.2 15 Oeste 27 Oeste 0 -- -- 36
2019-12-01 13:00:00 16.6 12 Oeste 24 Sudoeste 0 -- -- 32
2019-12-01 12:00:00 17.2 10 Oeste 18 Oeste 0 -- -- 31
2019-12-01 11:00:00 16.7 9 Oeste 14 Sudoeste 0 -- -- 29
2019-12-01 10:00:00 16 6 Oeste 11 Oeste 0 -- -- 31
2019-12-01 09:00:00 14.9 2 Sur 4 Sur 0 -- -- 39
2019-12-01 08:00:00 9.4 2 Norte 4 Norte 0 -- -- 45
2019-12-01 07:00:00 8.9 0 Calma 4 Nordeste 0 -- -- 46
2019-12-01 06:00:00 9.2 3 Nordeste 5 Nordeste 0 -- -- 48
2019-12-01 05:00:00 9.5 2 Este 4 Este 0 -- -- 45
2019-12-01 04:00:00 9.5 3 Este 5 Este 0 -- -- 42
2019-12-01 03:00:00 10 4 Este 8 Este 0 -- -- 42
2019-12-01 02:00:00 10.8 5 Este 8 Este 0 -- -- 38
2019-12-01 01:00:00 10.9 5 Este 12 Este 0 -- -- 38
2019-12-01 00:00:00 12.2 7 Este 13 Este 0 -- -- 35
2019-11-30 23:00:00 11.7 5 Este 9 Sudeste 0 -- -- 37
2019-11-30 22:00:00 12 4 Este 10 Nordeste 0 -- -- 35
2019-11-30 21:00:00 12.2 4 Este 14 Este 0 -- -- 37
2019-11-30 20:00:00 13 9 Este 16 Este 0 -- -- 33
2019-11-30 19:00:00 13 6 Este 12 Este 0 -- -- 33
2019-11-30 18:00:00 14.6 0 Calma 8 Oeste 0 -- -- 42
2019-11-30 17:00:00 16.6 5 Oeste 12 Oeste 0 -- -- 35
2019-11-30 16:00:00 17.3 4 Nordeste 17 Este 0 -- -- 33
2019-11-30 15:00:00 17.5 7 Este 17 Oeste 0 -- -- 33
2019-11-30 14:00:00 18.6 8 Noroeste 19 Oeste 0 -- -- 32
2019-11-30 13:00:00 18.7 5 Este 17 Nordeste 0 -- -- 30
2019-11-30 12:00:00 18.8 6 Sudeste 16 Sudeste 0 -- -- 26
2019-11-30 11:00:00 18.1 9 Este 19 Sudeste 0 -- -- 27
2019-11-30 10:00:00 17 11 Sudeste 20 Sudeste 0 -- -- 28
2019-11-30 09:00:00 15.7 12 Sudeste 21 Sudeste 0 -- -- 30
2019-11-30 08:00:00 13.4 13 Sudeste 23 Sudeste 0 -- -- 32
2019-11-30 07:00:00 13.3 13 Sudeste 22 Sudeste 0 -- -- 33
2019-11-30 06:00:00 13.2 13 Sudeste 24 Sudeste 0 -- -- 33
2019-11-30 05:00:00 13.6 15 Sudeste 28 Sudeste 0 -- -- 33
2019-11-30 04:00:00 13.4 16 Sudeste 33 Sudeste 0 -- -- 34
2019-11-30 03:00:00 13.4 18 Sudeste 37 Este 0 -- -- 34
2019-11-30 02:00:00 13.8 22 Este 35 Sudeste 0 -- -- 33
2019-11-30 01:00:00 14.2 21 Sudeste 38 Sudeste 0 -- -- 32
2019-11-30 00:00:00 14.2 23 Sudeste 36 Sudeste 0 -- -- 32
2019-11-29 23:00:00 14.3 21 Sudeste 40 Sudeste 0 -- -- 36
2019-11-29 22:00:00 14.3 23 Sudeste 38 Sudeste 0 -- -- 36
2019-11-29 21:00:00 14.2 24 Sudeste 39 Sudeste 0 -- -- 33
2019-11-29 20:00:00 13.8 21 Sudeste 34 Sudeste 0 -- -- 36
2019-11-29 19:00:00 13.8 21 Sudeste 36 Sudeste 0 -- -- 36
2019-11-29 18:00:00 14 20 Sudeste 31 Sudeste 0 -- -- 36
2019-11-29 17:00:00 15.1 21 Sudeste 40 Sudeste 0 -- -- 32
2019-11-29 16:00:00 15.7 19 Sudeste 43 Sudeste 0 -- -- 31
2019-11-29 15:00:00 15.8 22 Sudeste 41 Sudeste 0 -- -- 32
2019-11-29 14:00:00 16 23 Sudeste 44 Sudeste 0 -- -- 34
2019-11-29 13:00:00 15.9 26 Sudeste 53 Sudeste 0 -- -- 34
2019-11-29 12:00:00 15.7 30 Sudeste 49 Sudeste 0 -- -- 35
2019-11-29 11:00:00 15.1 32 Sudeste 54 Sudeste 0 -- -- 35
2019-11-29 10:00:00 14.5 31 Sudeste 55 Sudeste 0 -- -- 37
2019-11-29 09:00:00 13.6 27 Sudeste 46 Sudeste 0 -- -- 38
2019-11-29 08:00:00 12.1 23 Sudeste 39 Este 0 -- -- 42
2019-11-29 07:00:00 12.4 24 Este 41 Sudeste 0 -- -- 43
2019-11-29 06:00:00 11.8 25 Este 35 Sudeste 0 -- -- 45
2019-11-29 05:00:00 12 19 Este 35 Este 0 -- -- 45
2019-11-29 04:00:00 12.1 20 Este 39 Este 0 -- -- 45
2019-11-29 03:00:00 12.2 26 Este 37 Este 0 -- -- 46
2019-11-29 02:00:00 12.4 22 Este 40 Este 0 -- -- 47
2019-11-29 01:00:00 13 25 Este 37 Este 0 -- -- 43
2019-11-29 00:00:00 13.2 22 Este 34 Sudeste 0 -- -- 42
2019-11-28 23:00:00 13 18 Este 33 Este 0 -- -- 43
2019-11-28 22:00:00 12.9 15 Sudeste 36 Este 0 -- -- 43
2019-11-28 21:00:00 12.8 13 Sudeste 32 Este 0 -- -- 44
2019-11-28 20:00:00 12.6 9 Este 32 Este 0 -- -- 46
2019-11-28 19:00:00 12.7 19 Sudeste 36 Sudeste 0 -- -- 46
2019-11-28 18:00:00 12.6 16 Sudeste 32 Sudeste 0 -- -- 45
2019-11-28 17:00:00 13 15 Sudeste 30 Sudeste 0 -- -- 46
2019-11-28 16:00:00 13.3 11 Sudeste 26 Sudeste 0 -- -- 47
2019-11-28 15:00:00 13.9 16 Sudeste 30 Sudeste 0 -- -- 48
2019-11-28 14:00:00 14 13 Sudeste 32 Sudeste 0 -- -- 47
2019-11-28 13:00:00 14.8 14 Sudeste 28 Sudeste 0 -- -- 48
2019-11-28 12:00:00 14.7 15 Sudeste 27 Sudeste 0 -- -- 46
2019-11-28 11:00:00 14.4 14 Sudeste 27 Sudeste 0 -- -- 48
2019-11-28 10:00:00 12.4 15 Sudeste 25 Sudeste 0 -- -- 50
2019-11-28 09:00:00 11.6 12 Este 24 Sudeste 0 -- -- 51
2019-11-28 08:00:00 10.3 11 Sudeste 26 Este 0 -- -- 53
2019-11-28 07:00:00 10.1 11 Este 29 Sudeste 0 -- -- 45
2019-11-28 06:00:00 9.6 10 Este 25 Este 0 -- -- 41
2019-11-28 05:00:00 10.5 17 Este 27 Este 0 -- -- 35
2019-11-28 04:00:00 8.7 12 Este 21 Este 0 -- -- 68
2019-11-28 03:00:00 8.9 10 Este 21 Este 0 -- -- 67
2019-11-28 02:00:00 9.3 10 Este 25 Este 0 -- -- 65
2019-11-28 01:00:00 9.7 16 Este 27 Sudeste 0 -- -- 63
2019-11-28 00:00:00 9.8 15 Este 26 Este 0 -- -- 64
2019-11-27 23:00:00 9.8 13 Este 26 Sudeste 0 -- -- 65
2019-11-27 22:00:00 9.6 11 Este 23 Nordeste 0 -- -- 66
2019-11-27 21:00:00 10 12 Este 25 Este 0 -- -- 65
2019-11-27 20:00:00 10 11 Este 24 Este 0 -- -- 66
2019-11-27 19:00:00 9.8 9 Este 15 Este 0 -- -- 70
2019-11-27 18:00:00 9.9 0 Calma 5 Este 0 -- -- 78
2019-11-27 17:00:00 11.4 5 Oeste 11 Oeste 0 -- -- 83
2019-11-27 16:00:00 13.3 3 Nordeste 15 Noroeste 0 -- -- 77
2019-11-27 15:00:00 14 4 Noroeste 14 Oeste 0 -- -- 74
2019-11-27 14:00:00 15.1 8 Oeste 13 Oeste 0 -- -- 65
2019-11-27 13:00:00 16 3 Nordeste 16 Este 0 -- -- 66
2019-11-27 05:00:00 -- -- -- -- -- -- -- -- --
2019-11-27 04:00:00 8.7 7 Sudeste 16 Este 0 -- -- 70
2019-11-27 03:00:00 9.3 7 Sudeste 18 Este 0 -- -- 66
2019-11-27 02:00:00 10.1 10 Este 21 Este 0 -- -- 61
2019-11-27 01:00:00 10.5 11 Este 24 Sudeste 0 -- -- 63
2019-11-27 00:00:00 11 13 Este 24 Este 0 -- -- 57
2019-11-26 23:00:00 11.3 13 Este 27 Este 0 -- -- 55
2019-11-26 22:00:00 11.5 13 Este 26 Este 0 -- -- 55
2019-11-26 21:00:00 11.1 12 Este 19 Este 0 -- -- 57
2019-11-26 20:00:00 11.2 11 Este 18 Este 0 -- -- 57
2019-11-26 19:00:00 11.4 8 Este 17 Este 0 -- -- 64
2019-11-26 18:00:00 12.2 9 Este 17 Este 0 -- -- 65
2019-11-26 17:00:00 14.3 8 Este 15 Este 0 -- -- 57
2019-11-26 16:00:00 15.1 5 Este 18 Nordeste 0 -- -- 63
2019-11-26 15:00:00 15.5 5 Nordeste 18 Este 0 -- -- 61
2019-11-26 14:00:00 16 6 Este 16 Sudeste 0 -- -- 61
2019-11-26 13:00:00 16.5 6 Este 18 Este 0 -- -- 53
2019-11-26 12:00:00 17.6 3 Nordeste 18 Este 0 -- -- 55
2019-11-26 11:00:00 17.4 6 Sudeste 31 Sudeste 0 -- -- 53
2019-11-26 10:00:00 15.7 16 Este 27 Este 0 -- -- 50
2019-11-26 09:00:00 14.1 12 Sudeste 33 Este 0 -- -- 62
2019-11-26 08:00:00 11.9 21 Sudeste 32 Este 0 -- -- 67
2019-11-26 07:00:00 11.9 20 Sudeste 37 Este 0 -- -- 67
2019-11-26 06:00:00 12.3 25 Sudeste 41 Este 0 -- -- 65
2019-11-26 05:00:00 12.4 23 Sudeste 40 Este 0 -- -- 63
2019-11-26 04:00:00 12.3 22 Sudeste 34 Sudeste 0 -- -- 64
2019-11-26 03:00:00 13.4 16 Sudeste 30 Este 0 -- -- 41
2019-11-26 02:00:00 11.6 13 Este 22 Este 0 -- -- 53
2019-11-26 01:00:00 11.5 12 Este 24 Sudeste 0 -- -- 61
2019-11-26 00:00:00 12.2 13 Este 26 Este 0 -- -- 53
2019-11-25 23:00:00 12.5 11 Este 25 Este 0 -- -- 50
2019-11-25 22:00:00 12.9 15 Este 24 Este 0 -- -- 53
2019-11-25 21:00:00 13.8 18 Este 32 Sudeste 0 -- -- 46
2019-11-25 20:00:00 13 15 Este 27 Este 0 -- -- 53
2019-11-25 19:00:00 14 15 Este 27 Este 0 -- -- 45
2019-11-25 18:00:00 13.7 10 Este 19 Este 0 -- -- 44
2019-11-25 17:00:00 15.2 9 Este 22 Este 0 -- -- 38
2019-11-25 16:00:00 13.4 7 Este 14 Nordeste 0 -- -- 56
2019-11-25 15:00:00 14.3 6 Este 15 Este 0 -- -- 61
2019-11-25 14:00:00 16.7 5 Este 13 Nordeste 0 -- -- 50
2019-11-25 13:00:00 16.4 8 Este 16 Este 0 -- -- 53
2019-11-25 12:00:00 19.4 6 Este 15 Este 0 -- -- 36
2019-11-25 11:00:00 19.1 7 Este 12 Este 0 -- -- 25
2019-11-25 10:00:00 17.4 6 Este 13 Este 0 -- -- 18
2019-11-25 09:00:00 16.6 6 Este 14 Este 0 -- -- 11
2019-11-25 08:00:00 11.3 5 Este 19 Este 0 -- -- 11
2019-11-25 07:00:00 12.8 10 Este 15 Sudeste 0 -- -- 7
2019-11-25 06:00:00 9.6 5 Este 13 Este 0 -- -- 13
2019-11-25 05:00:00 9.9 5 Este 10 Este 0 -- -- 15
2019-11-25 04:00:00 9.2 2 Este 8 Este 0 -- -- 16
2019-11-25 03:00:00 9.3 5 Este 14 Este 0 -- -- 21
2019-11-25 02:00:00 9.2 6 Este 10 Este 0 -- -- 21
2019-11-25 01:00:00 11.1 5 Este 9 Este 0 -- -- 24
2019-11-25 00:00:00 9.6 4 Este 6 Este 0 -- -- 27
2019-11-24 23:00:00 10.3 6 Este 14 Este 0 -- -- 28
2019-11-24 22:00:00 11 7 Este 15 Nordeste 0 -- -- 21
2019-11-24 21:00:00 11.4 9 Este 16 Este 0 -- -- 20
2019-11-24 20:00:00 11.1 8 Este 18 Nordeste 0 -- -- 22
2019-11-24 19:00:00 11.3 12 Este 19 Nordeste 0 -- -- 24
2019-11-24 18:00:00 11.3 8 Este 18 Este 0 -- -- 25
2019-11-24 17:00:00 11.8 6 Este 14 Este 0 -- -- 32
2019-11-24 16:00:00 13.4 3 Este 12 Nordeste 0 -- -- 45
2019-11-24 15:00:00 15.5 4 Norte 14 Nordeste 0 -- -- 39
2019-11-24 14:00:00 13.8 5 Este 14 Este 0 -- -- 39
2019-11-24 13:00:00 13.5 7 Este 17 Este 0 -- -- 63
2019-11-24 12:00:00 11.3 11 Este 21 Sudeste 0 -- -- 79
2019-11-24 11:00:00 10.3 10 Este 28 Este 0 -- -- 86
2019-11-24 10:00:00 8.8 13 Este 31 Este 0 -- -- 100
2019-11-24 09:00:00 9.4 16 Este 32 Este 0 -- -- 92
2019-11-24 08:00:00 8.7 19 Este 40 Nordeste 0 -- -- 99
2019-11-24 07:00:00 8.4 19 Este 40 Nordeste 0 -- -- 100
2019-11-24 06:00:00 8 19 Este 39 Este 0 -- -- 98
2019-11-24 05:00:00 8 22 Este 42 Este 0.2 -- -- 93
2019-11-24 04:00:00 8.1 18 Este 34 Este 0 -- -- 91
2019-11-24 03:00:00 8.4 17 Este 42 Este 0 -- -- 100
2019-11-24 02:00:00 7.2 18 Este 35 Este 0 -- -- 100
2019-11-24 01:00:00 7.5 14 Este 31 Este 0 -- -- 100
2019-11-24 00:00:00 7.5 17 Este 37 Este 0 -- -- 100
2019-11-23 23:00:00 7.5 18 Este 35 Nordeste 0 -- -- 100
2019-11-23 22:00:00 7.5 14 Este 28 Este 0 -- -- 100
2019-11-23 21:00:00 7.2 12 Este 31 Este 0 -- -- 96
2019-11-23 20:00:00 7.7 12 Este 30 Este 0 -- -- 100
2019-11-23 19:00:00 8.6 14 Este 32 Este 0.2 -- -- 100
2019-11-23 18:00:00 10 4 Oeste 22 Este 0.4 -- -- 99
2019-11-23 17:00:00 11 6 Sudoeste 21 Oeste 1 -- -- 99
2019-11-23 16:00:00 11 6 Oeste 18 Noroeste 0.2 -- -- 97
2019-11-23 15:00:00 12 4 Sudeste 21 Este 0 -- -- 97
2019-11-23 14:00:00 12.3 6 Este 24 Nordeste 0 -- -- 91
2019-11-23 13:00:00 13.5 7 Norte 23 Nordeste 0 -- -- 83
2019-11-23 12:00:00 13.1 8 Este 22 Este 0 -- -- 80
2019-11-23 11:00:00 14.3 7 Noroeste 26 Noroeste 0 -- -- 70
2019-11-23 10:00:00 13.5 7 Noroeste 20 Norte 0 -- -- 69
2019-11-23 09:00:00 11.9 6 Noroeste 17 Oeste 0 -- -- 83
2019-11-23 08:00:00 9.5 4 Noroeste 16 Noroeste 0 -- -- 99
2019-11-23 07:00:00 10.2 6 Noroeste 15 Oeste 0.2 -- -- 99
2019-11-23 06:00:00 9.4 5 Oeste 18 Noroeste 0 -- -- 92
2019-11-23 05:00:00 8.6 2 Sur 17 Noroeste 0 -- -- 92
2019-11-23 04:00:00 8.5 2 Norte 10 Sur 0 -- -- 79
2019-11-23 03:00:00 9.1 4 Oeste 15 Oeste 0 -- -- 91
2019-11-23 02:00:00 8.6 3 Sudoeste 12 Oeste 0 -- -- 89
2019-11-23 01:00:00 7.7 0 Calma 13 Sudoeste 0 -- -- 95
2019-11-23 00:00:00 9.6 6 Oeste 19 Noroeste 0 -- -- 99
2019-11-22 23:00:00 8.5 0 Calma 13 Noroeste 0 -- -- 85
2019-11-22 22:00:00 11 6 Norte 15 Norte 0 -- -- 67
2019-11-22 21:00:00 10.4 4 Noroeste 13 Norte 0 -- -- 92
2019-11-22 20:00:00 10.6 4 Norte 18 Norte 0 -- -- 97
2019-11-22 19:00:00 10.4 4 Oeste 12 Noroeste 0 -- -- 92
2019-11-22 18:00:00 11.3 4 Noroeste 15 Noroeste 0 -- -- 85
2019-11-22 17:00:00 12.8 6 Norte 17 Norte 0 -- -- 69
2019-11-22 16:00:00 13.8 8 Oeste 18 Oeste 0 -- -- 52
2019-11-22 15:00:00 13.5 11 Oeste 26 Oeste 0 -- -- 61
2019-11-22 14:00:00 14.3 16 Oeste 25 Oeste 0 -- -- 51
2019-11-22 13:00:00 15.1 8 Oeste 17 Noroeste 0 -- -- 56
2019-11-22 12:00:00 15.3 6 Oeste 17 Noroeste 0 -- -- 47
2019-11-22 11:00:00 14.2 6 Oeste 12 Oeste 0 -- -- 53
2019-11-22 10:00:00 15.3 5 Oeste 11 Noroeste 0 -- -- 39
2019-11-22 09:00:00 13.4 2 Norte 8 Noroeste 0 -- -- 63
2019-11-22 08:00:00 6.9 0 Calma 13 Noroeste 0 -- -- 77
2019-11-22 07:00:00 6.8 0 Calma 9 Norte 0 -- -- 92
2019-11-22 06:00:00 7.9 3 Nordeste 10 Norte 0 -- -- 93
2019-11-22 05:00:00 8.2 4 Norte 11 Noroeste 0 -- -- 96
2019-11-22 04:00:00 9.2 5 Noroeste 13 Nordeste 0 -- -- 100
2019-11-22 03:00:00 7.1 4 Norte 12 Oeste 0 -- -- 100
2019-11-22 02:00:00 9.6 0 Calma 18 Oeste 0 -- -- 100
2019-11-22 01:00:00 9.7 3 Noroeste 12 Oeste 0 -- -- 100
2019-11-22 00:00:00 9.6 3 Noroeste 17 Oeste 0 -- -- 100
2019-11-21 23:00:00 10 10 Oeste 19 Oeste 0 -- -- 100
2019-11-21 22:00:00 9.9 6 Oeste 15 Oeste 0 -- -- 100
2019-11-21 21:00:00 9.9 9 Oeste 18 Oeste 0 -- -- 99
2019-11-21 20:00:00 9.7 5 Oeste 21 Oeste 0 -- -- 99
2019-11-21 19:00:00 9.9 8 Oeste 22 Oeste 0 -- -- 99
2019-11-21 18:00:00 9.6 13 Oeste 23 Oeste 0 -- -- 97
2019-11-21 17:00:00 10.7 14 Oeste 27 Oeste 0 -- -- 89
2019-11-21 16:00:00 12.9 15 Oeste 24 Oeste 0 -- -- 72
2019-11-21 15:00:00 13.1 14 Oeste 25 Oeste 0 -- -- 54
2019-11-21 14:00:00 12.4 12 Oeste 21 Oeste 0 -- -- 76
2019-11-21 13:00:00 12.8 12 Oeste 19 Oeste 0 -- -- 79
2019-11-21 12:00:00 13.2 9 Oeste 18 Oeste 0 -- -- 73
2019-11-21 11:00:00 12 10 Oeste 21 Sudoeste 0 -- -- 77
2019-11-21 10:00:00 11.2 10 Sudoeste 22 Sudoeste 0 -- -- 76
2019-11-21 09:00:00 9.9 11 Sudoeste 21 Oeste 0 -- -- 85
2019-11-21 08:00:00 6.9 6 Sur 17 Sudoeste 0 -- -- 97
2019-11-21 07:00:00 -- -- -- -- -- -- -- -- --
2019-11-21 06:00:00 -- -- -- -- -- -- -- -- --
2019-11-21 05:00:00 -- -- -- -- -- -- -- -- --
2019-11-21 04:00:00 -- -- -- -- -- -- -- -- --
2019-11-21 03:00:00 -- -- -- -- -- -- -- -- --
2019-11-21 02:00:00 -- -- -- -- -- -- -- -- --
2019-11-21 01:00:00 -- -- -- -- -- -- -- -- --
2019-11-21 00:00:00 -- -- -- -- -- -- -- -- --
2019-11-20 23:00:00 -- -- -- -- -- -- -- -- --
2019-11-20 22:00:00 -- -- -- -- -- -- -- -- --
2019-11-20 21:00:00 -- -- -- -- -- -- -- -- --
2019-11-20 20:00:00 -- -- -- -- -- -- -- -- --
2019-11-20 19:00:00 7.5 2 Sudeste 7 Oeste 0 -- -- 96
2019-11-20 18:00:00 8.7 6 Oeste 14 Oeste 0 -- -- 91
2019-11-20 17:00:00 10.9 8 Oeste 21 Oeste 0 -- -- 77
2019-11-20 16:00:00 12.3 11 Oeste 20 Oeste 0 -- -- 75
2019-11-20 15:00:00 12.8 12 Oeste 21 Oeste 0 -- -- 74
2019-11-20 14:00:00 13.4 8 Oeste 18 Oeste 0 -- -- 68
2019-11-20 13:00:00 13.8 8 Noroeste 14 Oeste 0 -- -- 61
2019-11-20 12:00:00 12.7 6 Oeste 14 Noroeste 0 -- -- 62
2019-11-20 11:00:00 12.6 5 Oeste 11 Oeste 0 -- -- 66
2019-11-20 10:00:00 12 7 Oeste 11 Oeste 0 -- -- 63
2019-11-20 09:00:00 11.7 0 Calma 5 Sudeste 0 -- -- 52
2019-11-20 08:00:00 5.6 2 Nordeste 7 Nordeste 0 -- -- 95
2019-11-20 07:00:00 4.9 0 Calma 5 Este 0 -- -- 95
2019-11-20 06:00:00 5.8 3 Este 6 Nordeste 0 -- -- 94
2019-11-20 05:00:00 4.9 0 Calma 4 Nordeste 0 -- -- 97
2019-11-20 04:00:00 4.8 0 Calma 4 Nordeste 0 -- -- 99
2019-11-20 03:00:00 4.6 0 Calma 7 Noroeste 0 -- -- 97
2019-11-20 02:00:00 5.3 2 Oeste 13 Norte 0 -- -- 94
2019-11-20 01:00:00 6.7 5 Noroeste 14 Noroeste 0 -- -- 85
2019-11-20 00:00:00 5.5 2 Sudoeste 10 Oeste 0 -- -- 89
2019-11-19 23:00:00 5.5 2 Noroeste 10 Oeste 0 -- -- 73
2019-11-19 22:00:00 5.3 0 Calma 5 Sur 0 -- -- 99
2019-11-19 21:00:00 5.1 0 Calma 5 Este 0 -- -- 97
2019-11-19 20:00:00 5.1 2 Nordeste 5 Este 0 -- -- 97
2019-11-19 19:00:00 6.8 0 Calma 15 Oeste 0 -- -- 98
2019-11-19 18:00:00 8.4 7 Oeste 16 Oeste 0 -- -- 92
2019-11-19 17:00:00 9.7 7 Oeste 17 Oeste 0 -- -- 83
2019-11-19 16:00:00 10.8 9 Oeste 17 Oeste 0 -- -- 81
2019-11-19 15:00:00 10.9 9 Oeste 15 Oeste 0 -- -- 80
2019-11-19 14:00:00 8.9 6 Noroeste 15 Oeste 0 -- -- 97
2019-11-19 13:00:00 10.8 5 Noroeste -- -- -- -- -- 87
2019-11-19 12:00:00 -- -- -- -- -- -- -- -- --
2019-11-19 11:00:00 -- -- -- -- -- -- -- -- --
2019-11-19 10:00:00 7.9 3 Noroeste 18 Nordeste 0 -- -- 100
2019-11-19 09:00:00 7.2 10 Este 21 Este 0 -- -- 100
2019-11-19 08:00:00 6.5 11 Este 20 Este 0.2 -- -- 100
2019-11-19 07:00:00 5.9 11 Este 23 Este 0 -- -- 100
2019-11-19 06:00:00 5.1 10 Este 23 Nordeste 0 -- -- 98
2019-11-19 05:00:00 4.8 11 Este 24 Este 0 -- -- 99
2019-11-19 04:00:00 5.5 11 Este 23 Nordeste 0 -- -- 86
2019-11-19 03:00:00 4.2 13 Este 24 Este 0 -- -- 99
2019-11-19 02:00:00 6.2 14 Este 24 Este 0.2 -- -- 100
2019-11-19 01:00:00 6.9 13 Este 25 Nordeste 0 -- -- 100
2019-11-19 00:00:00 5.4 13 Este 24 Nordeste 0 -- -- 100
2019-11-18 23:00:00 5.1 13 Este 26 Nordeste 0.2 -- -- 99
2019-11-18 22:00:00 4.7 15 Este 31 Este 0 -- -- 96
2019-11-18 21:00:00 5.8 16 Este 37 Este 0 -- -- 99
2019-11-18 20:00:00 5.8 18 Este 33 Este 0 -- -- 100
2019-11-18 19:00:00 5.4 15 Este 30 Este 0 -- -- 100
2019-11-18 18:00:00 5.6 12 Este 21 Nordeste 0 -- -- 96
2019-11-18 17:00:00 7.3 8 Este 18 Nordeste 0 -- -- 92
2019-11-18 16:00:00 9.1 6 Nordeste 14 Nordeste 0 -- -- 89
2019-11-18 15:00:00 10.3 4 Este 15 Nordeste 0 -- -- 86
2019-11-18 14:00:00 10.3 6 Nordeste 19 Nordeste 0 -- -- 83
2019-11-18 13:00:00 9.5 10 Nordeste 19 Nordeste 0 -- -- 86
2019-11-18 12:00:00 11.1 6 Este 14 Nordeste 0 -- -- 76
2019-11-18 11:00:00 10.8 4 Este 13 Nordeste 0 -- -- 72
2019-11-18 10:00:00 8.5 6 Nordeste 14 Nordeste 0 -- -- 86
2019-11-18 09:00:00 6.1 4 Nordeste 13 Este 0 -- -- 96
2019-11-18 08:00:00 3 4 Nordeste 8 Este 0 -- -- 98
2019-11-18 07:00:00 2.6 0 Calma 5 Nordeste 0 -- -- 84
2019-11-18 06:00:00 2.5 0 Calma 8 Nordeste 0 -- -- 87
2019-11-18 05:00:00 2.6 2 Norte 8 Nordeste 0 -- -- 85
2019-11-18 04:00:00 2.5 3 Nordeste 5 Este 0 -- -- 86
2019-11-18 03:00:00 2.3 2 Este 14 Nordeste 0 -- -- 89
2019-11-18 02:00:00 3 6 Este 15 Este 0 -- -- 89
2019-11-18 01:00:00 3 10 Este 26 Este 0 -- -- 94
2019-11-18 00:00:00 4.2 13 Este 29 Nordeste 0 -- -- 100
2019-11-17 23:00:00 4.9 15 Este 31 Este 0 -- -- 100
2019-11-17 22:00:00 5.2 21 Este 39 Este 0 -- -- 100
2019-11-17 21:00:00 5 19 Este 34 Este 0 -- -- 100
2019-11-17 20:00:00 5.1 21 Este 37 Nordeste 0 -- -- 100
2019-11-17 19:00:00 5 21 Este 37 Este 0.2 -- -- 100
2019-11-17 18:00:00 5.7 18 Este 33 Este 0 -- -- 100
2019-11-17 17:00:00 5.8 17 Este 33 Este 0 -- -- 100
2019-11-17 16:00:00 5.6 21 Este 37 Este 0 -- -- 100
2019-11-17 15:00:00 6.1 19 Este 41 Este 0.4 -- -- 100
2019-11-17 14:00:00 6.2 23 Este 40 Este 0.4 -- -- 100
2019-11-17 13:00:00 5.3 19 Este 46 Este 0 -- -- 100
2019-11-17 12:00:00 5.1 24 Este 45 Este 0.2 -- -- 100
2019-11-17 11:00:00 5.2 24 Este 48 Nordeste 1 -- -- 100
2019-11-17 10:00:00 5.3 24 Este 49 Este 0.4 -- -- 100
2019-11-17 09:00:00 4.8 27 Este 47 Este 0.8 -- -- 100
2019-11-17 08:00:00 5.3 22 Este 43 Este 1.2 -- -- 100
2019-11-17 07:00:00 4.5 24 Este 44 Este 1 -- -- 100
2019-11-17 06:00:00 4.4 22 Este 39 Este 0.6 -- -- 100
2019-11-17 05:00:00 4.6 18 Este 39 Este 0.4 -- -- 100
2019-11-17 04:00:00 5.1 22 Este 41 Este 0.2 -- -- 100
2019-11-17 03:00:00 5.4 23 Este 41 Este 0.4 -- -- 100
2019-11-17 02:00:00 5.1 22 Este 42 Nordeste 0.8 -- -- 100
2019-11-17 01:00:00 5.3 24 Este 44 Este 0.8 -- -- 100
2019-11-17 00:00:00 5.3 24 Este 41 Este 0.6 -- -- 100
2019-11-16 23:00:00 5.7 26 Este 49 Este 0.4 -- -- 100
2019-11-16 22:00:00 5.4 27 Este 49 Este 0.4 -- -- 100
2019-11-16 21:00:00 5.5 29 Este 49 Este 1 -- -- 100
2019-11-16 20:00:00 5.9 23 Este 46 Este 1 -- -- 100
2019-11-16 19:00:00 5.3 27 Este 48 Este 0 -- -- 100
2019-11-16 18:00:00 5 25 Este 42 Este 0.4 -- -- 100
2019-11-16 17:00:00 5.5 24 Este 45 Este 0 -- -- 100
2019-11-16 16:00:00 5.4 22 Este 44 Este 0 -- -- 100
2019-11-16 15:00:00 5.1 24 Este 44 Este 0 -- -- 100
2019-11-16 14:00:00 5.3 23 Este 46 Este 0.2 -- -- 100
2019-11-16 13:00:00 5.1 14 Este 31 Este 0 -- -- 100
2019-11-16 12:00:00 5.1 11 Sudeste 29 Este 0 -- -- 100
2019-11-16 11:00:00 5.4 12 Este 38 Este 0.6 -- -- 100
2019-11-16 10:00:00 5 14 Este 34 Este 1.2 -- -- 100
2019-11-16 09:00:00 5.4 12 Sudeste 31 Este 1.8 -- -- 100
2019-11-16 08:00:00 5.1 10 Sudeste 29 Sudeste 1.6 -- -- 100
2019-11-16 07:00:00 5.3 7 Sudoeste 23 Noroeste 1.6 -- -- 100
2019-11-16 06:00:00 5.2 11 Sur 26 Este 0.8 -- -- 100
2019-11-16 05:00:00 5.1 9 Sur 29 Sudeste 1.2 -- -- 100
2019-11-16 04:00:00 5.3 13 Sudeste 33 Nordeste 1.2 -- -- 100
2019-11-16 03:00:00 4.9 12 Sur 28 Este 0.8 -- -- 100
2019-11-16 02:00:00 5.3 12 Sur 28 Este 0.8 -- -- 100
2019-11-16 01:00:00 5.6 12 Sudeste 33 Este 0.8 -- -- 100
2019-11-16 00:00:00 4.7 11 Sur 33 Este 0.8 -- -- 100